createdAt,value
2023-05-05T00:00:12.266Z,1016.93
2023-05-05T00:00:45.932Z,1016.93
2023-05-05T00:01:13.506Z,1016.63
2023-05-05T00:01:44.994Z,1016.63
2023-05-05T00:02:16.301Z,1016.73
2023-05-05T00:02:47.507Z,1016.73
2023-05-05T00:03:17.350Z,1017.03
2023-05-05T00:03:49.139Z,1017.03
2023-05-05T00:04:19.333Z,1016.73
2023-05-05T00:04:50.993Z,1016.73
2023-05-05T00:05:22.242Z,1016.83
2023-05-05T00:05:52.988Z,1016.83
2023-05-05T00:06:23.277Z,1017.03
2023-05-05T00:06:55.143Z,1017.03
2023-05-05T00:07:26.267Z,1016.63
2023-05-05T00:07:57.063Z,1016.63
2023-05-05T00:08:27.359Z,1016.73
2023-05-05T00:08:58.949Z,1016.73
2023-05-05T00:09:29.637Z,1016.83
2023-05-05T00:10:02.140Z,1016.83
2023-05-05T00:10:31.269Z,1016.73
2023-05-05T00:11:03.390Z,1016.73
2023-05-05T00:11:33.981Z,1016.73
2023-05-05T00:12:05.550Z,1016.63
2023-05-05T00:12:36.297Z,1016.63
2023-05-05T00:13:07.428Z,1016.73
2023-05-05T00:13:37.297Z,1016.73
2023-05-05T00:14:08.965Z,1016.93
2023-05-05T00:14:39.277Z,1016.93
2023-05-05T00:15:11.860Z,1016.83
2023-05-05T00:15:41.364Z,1016.83
2023-05-05T00:16:12.942Z,1016.83
2023-05-05T00:16:43.522Z,1016.83
2023-05-05T00:17:14.997Z,1016.73
2023-05-05T00:17:46.310Z,1016.73
2023-05-05T00:18:17.139Z,1016.83
2023-05-05T00:18:47.286Z,1016.83
2023-05-05T00:19:18.987Z,1016.93
2023-05-05T00:19:49.249Z,1016.93
2023-05-05T00:20:21.462Z,1016.83
2023-05-05T00:20:51.392Z,1016.83
2023-05-05T00:21:22.964Z,1016.83
2023-05-05T00:21:53.298Z,1016.83
2023-05-05T00:22:24.966Z,1016.83
2023-05-05T00:22:56.296Z,1016.83
2023-05-05T00:23:27.272Z,1017.03
2023-05-05T00:23:57.266Z,1017.03
2023-05-05T00:24:29.002Z,1016.83
2023-05-05T00:24:59.384Z,1016.83
2023-05-05T00:25:31.984Z,1016.83
2023-05-05T00:26:01.580Z,1016.83
2023-05-05T00:26:33.068Z,1016.93
2023-05-05T00:27:03.287Z,1016.63
2023-05-05T00:27:35.089Z,1016.63
2023-05-05T00:28:06.255Z,1016.63
2023-05-05T00:28:36.990Z,1016.63
2023-05-05T00:29:07.259Z,1016.52
2023-05-05T00:29:38.984Z,1016.52
2023-05-05T00:30:10.422Z,1016.63
2023-05-05T00:30:41.130Z,1016.63
2023-05-05T00:31:11.335Z,1016.63
2023-05-05T00:31:43.015Z,1016.63
2023-05-05T00:32:13.262Z,1016.83
2023-05-05T00:32:44.998Z,1016.83
2023-05-05T00:33:16.275Z,1016.83
2023-05-05T00:33:46.628Z,1016.83
2023-05-05T00:34:18.007Z,1016.93
2023-05-05T00:34:48.277Z,1016.93
2023-05-05T00:35:21.004Z,1016.83
2023-05-05T00:35:50.299Z,1016.83
2023-05-05T00:36:21.959Z,1016.73
2023-05-05T00:36:52.275Z,1016.73
2023-05-05T00:37:24.039Z,1016.93
2023-05-05T00:37:54.278Z,1016.93
2023-05-05T00:38:26.986Z,1016.73
2023-05-05T00:38:56.260Z,1016.73
2023-05-05T00:39:27.984Z,1016.73
2023-05-05T00:39:58.312Z,1016.73
2023-05-05T00:40:38.740Z,1016.83
2023-05-05T00:41:00.344Z,1016.83
2023-05-05T00:41:32.088Z,1016.93
2023-05-05T00:42:02.356Z,1016.93
2023-05-05T00:42:34.493Z,1016.93
2023-05-05T00:43:05.297Z,1016.83
2023-05-05T00:43:36.962Z,1016.83
2023-05-05T00:44:06.578Z,1016.73
2023-05-05T00:44:38.075Z,1016.73
2023-05-05T00:45:09.490Z,1016.93
2023-05-05T00:45:40.497Z,1016.93
2023-05-05T00:46:10.371Z,1016.93
2023-05-05T00:46:42.070Z,1016.93
2023-05-05T00:47:12.265Z,1016.73
2023-05-05T00:47:44.059Z,1016.73
2023-05-05T00:48:14.402Z,1016.83
2023-05-05T00:48:47.132Z,1016.83
2023-05-05T00:49:16.282Z,1016.63
2023-05-05T00:49:47.990Z,1016.63
2023-05-05T00:50:18.801Z,1016.83
2023-05-05T00:50:49.992Z,1016.83
2023-05-05T00:51:20.286Z,1017.03
2023-05-05T00:51:52.149Z,1017.03
2023-05-05T00:52:22.424Z,1016.63
2023-05-05T00:52:53.991Z,1016.63
2023-05-05T00:53:24.307Z,1016.83
2023-05-05T00:53:56.983Z,1016.83
2023-05-05T00:54:26.586Z,1016.52
2023-05-05T00:54:58.036Z,1016.52
2023-05-05T00:55:28.835Z,1016.52
2023-05-05T00:56:00.002Z,1016.52
2023-05-05T00:56:30.904Z,1016.73
2023-05-05T00:57:01.959Z,1016.73
2023-05-05T00:57:32.348Z,1016.83
2023-05-05T00:58:03.909Z,1016.93
2023-05-05T00:58:34.969Z,1016.93
2023-05-05T00:59:06.959Z,1016.83
2023-05-05T00:59:36.303Z,1016.83
2023-05-05T01:00:09.708Z,1016.73
2023-05-05T01:00:38.649Z,1016.73
2023-05-05T01:01:10.050Z,1016.63
2023-05-05T01:01:40.363Z,1016.63
2023-05-05T01:02:12.039Z,1016.52
2023-05-05T01:02:42.329Z,1016.52
2023-05-05T01:03:14.037Z,1016.63
2023-05-05T01:03:44.384Z,1016.63
2023-05-05T01:04:17.056Z,1016.63
2023-05-05T01:04:46.653Z,1016.63
2023-05-05T01:05:18.729Z,1016.73
2023-05-05T01:05:48.279Z,1016.73
2023-05-05T01:06:20.048Z,1016.63
2023-05-05T01:06:50.331Z,1016.63
2023-05-05T01:07:22.090Z,1016.73
2023-05-05T01:07:52.267Z,1016.73
2023-05-05T01:08:23.972Z,1016.52
2023-05-05T01:08:54.290Z,1016.52
2023-05-05T01:09:27.098Z,1016.63
2023-05-05T01:10:10.918Z,1016.63
2023-05-05T01:10:28.630Z,1016.73
2023-05-05T01:10:58.277Z,1016.73
2023-05-05T01:11:30.039Z,1016.73
2023-05-05T01:12:00.283Z,1016.73
2023-05-05T01:12:32.371Z,1016.63
2023-05-05T01:13:02.533Z,1016.63
2023-05-05T01:13:33.956Z,1016.63
2023-05-05T01:14:04.317Z,1016.63
2023-05-05T01:14:36.953Z,1016.63
2023-05-05T01:15:07.424Z,1016.73
2023-05-05T01:15:38.214Z,1016.73
2023-05-05T01:16:08.329Z,1016.73
2023-05-05T01:16:40.034Z,1016.73
2023-05-05T01:17:10.228Z,1016.83
2023-05-05T01:17:42.024Z,1016.83
2023-05-05T01:18:12.240Z,1016.73
2023-05-05T01:18:43.992Z,1016.73
2023-05-05T01:19:14.294Z,1016.73
2023-05-05T01:19:46.964Z,1016.73
2023-05-05T01:20:16.747Z,1016.73
2023-05-05T01:20:47.949Z,1016.73
2023-05-05T01:21:18.276Z,1016.73
2023-05-05T01:21:49.980Z,1016.73
2023-05-05T01:22:20.322Z,1016.52
2023-05-05T01:22:52.009Z,1016.52
2023-05-05T01:23:22.937Z,1016.63
2023-05-05T01:23:53.951Z,1016.63
2023-05-05T01:24:24.283Z,1016.63
2023-05-05T01:24:57.012Z,1016.63
2023-05-05T01:25:27.288Z,1016.73
2023-05-05T01:25:58.963Z,1016.73
2023-05-05T01:26:28.304Z,1016.73
2023-05-05T01:27:00.029Z,1016.73
2023-05-05T01:27:30.308Z,1016.73
2023-05-05T01:28:02.029Z,1016.73
2023-05-05T01:28:32.487Z,1016.52
2023-05-05T01:29:03.981Z,1016.73
2023-05-05T01:29:35.089Z,1016.73
2023-05-05T01:30:08.232Z,1016.83
2023-05-05T01:30:36.389Z,1016.83
2023-05-05T01:31:08.456Z,1016.73
2023-05-05T01:31:38.493Z,1016.73
2023-05-05T01:32:09.938Z,1016.63
2023-05-05T01:32:40.324Z,1016.63
2023-05-05T01:33:12.061Z,1016.52
2023-05-05T01:33:42.288Z,1016.52
2023-05-05T01:34:13.931Z,1016.73
2023-05-05T01:34:44.274Z,1016.73
2023-05-05T01:35:17.964Z,1016.73
2023-05-05T01:35:46.745Z,1016.73
2023-05-05T01:36:17.960Z,1016.63
2023-05-05T01:36:48.726Z,1016.63
2023-05-05T01:37:20.002Z,1016.93
2023-05-05T01:37:50.296Z,1016.93
2023-05-05T01:38:21.995Z,1016.73
2023-05-05T01:38:52.282Z,1016.73
2023-05-05T01:39:24.529Z,1016.52
2023-05-05T01:39:54.328Z,1016.52
2023-05-05T01:40:38.778Z,1016.83
2023-05-05T01:40:56.266Z,1016.83
2023-05-05T01:41:27.935Z,1016.63
2023-05-05T01:41:58.245Z,1016.63
2023-05-05T01:42:30.012Z,1016.83
2023-05-05T01:43:00.311Z,1016.83
2023-05-05T01:43:31.932Z,1016.63
2023-05-05T01:44:02.354Z,1016.73
2023-05-05T01:44:34.049Z,1016.73
2023-05-05T01:45:05.666Z,1016.93
2023-05-05T01:45:37.012Z,1016.93
2023-05-05T01:46:06.610Z,1016.63
2023-05-05T01:46:37.966Z,1016.63
2023-05-05T01:47:08.259Z,1016.52
2023-05-05T01:47:39.947Z,1016.52
2023-05-05T01:48:10.274Z,1016.63
2023-05-05T01:48:43.432Z,1016.63
2023-05-05T01:49:12.286Z,1016.52
2023-05-05T01:49:43.996Z,1016.52
2023-05-05T01:50:15.167Z,1016.73
2023-05-05T01:50:46.977Z,1016.73
2023-05-05T01:51:16.271Z,1016.52
2023-05-05T01:51:48.037Z,1016.52
2023-05-05T01:52:18.278Z,1016.52
2023-05-05T01:52:50.532Z,1016.52
2023-05-05T01:53:20.272Z,1016.93
2023-05-05T01:53:52.144Z,1016.93
2023-05-05T01:54:22.311Z,1016.52
2023-05-05T01:54:54.019Z,1016.52
2023-05-05T01:55:24.926Z,1016.42
2023-05-05T01:55:57.073Z,1016.42
2023-05-05T01:56:26.577Z,1016.63
2023-05-05T01:56:58.377Z,1016.63
2023-05-05T01:57:28.229Z,1016.42
2023-05-05T01:58:00.022Z,1016.42
2023-05-05T01:58:30.324Z,1016.42
2023-05-05T01:59:01.945Z,1016.42
2023-05-05T01:59:32.241Z,1016.73
2023-05-05T02:00:05.586Z,1016.63
2023-05-05T02:00:34.858Z,1016.63
2023-05-05T02:01:07.617Z,1016.52
2023-05-05T02:01:36.725Z,1016.52
2023-05-05T02:02:08.068Z,1016.63
2023-05-05T02:02:38.367Z,1016.63
2023-05-05T02:03:10.334Z,1016.42
2023-05-05T02:03:40.814Z,1016.42
2023-05-05T02:04:12.161Z,1016.52
2023-05-05T02:04:42.478Z,1016.52
2023-05-05T02:05:14.928Z,1016.42
2023-05-05T02:05:44.397Z,1016.42
2023-05-05T02:06:17.219Z,1016.63
2023-05-05T02:06:46.546Z,1016.63
2023-05-05T02:07:18.076Z,1016.73
2023-05-05T02:07:48.563Z,1016.73
2023-05-05T02:08:19.978Z,1016.52
2023-05-05T02:08:50.275Z,1016.52
2023-05-05T02:09:21.930Z,1016.42
2023-05-05T02:09:52.244Z,1016.42
2023-05-05T02:10:24.527Z,1016.52
2023-05-05T02:10:54.287Z,1016.52
2023-05-05T02:11:26.955Z,1016.52
2023-05-05T02:11:56.303Z,1016.52
2023-05-05T02:12:27.959Z,1016.63
2023-05-05T02:12:58.361Z,1016.63
2023-05-05T02:13:30.164Z,1016.52
2023-05-05T02:14:00.328Z,1016.52
2023-05-05T02:14:32.056Z,1016.52
2023-05-05T02:15:03.237Z,1016.73
2023-05-05T02:15:34.020Z,1016.73
2023-05-05T02:16:04.322Z,1016.63
2023-05-05T02:16:36.979Z,1016.63
2023-05-05T02:17:07.001Z,1016.52
2023-05-05T02:17:37.965Z,1016.52
2023-05-05T02:18:08.235Z,1016.42
2023-05-05T02:18:39.918Z,1016.42
2023-05-05T02:19:10.280Z,1016.42
2023-05-05T02:19:42.419Z,1016.42
2023-05-05T02:20:12.783Z,1016.52
2023-05-05T02:20:46.036Z,1016.52
2023-05-05T02:21:14.299Z,1016.52
2023-05-05T02:21:46.980Z,1016.52
2023-05-05T02:22:16.271Z,1016.42
2023-05-05T02:22:48.000Z,1016.42
2023-05-05T02:23:18.242Z,1016.42
2023-05-05T02:23:50.089Z,1016.42
2023-05-05T02:24:20.270Z,1016.52
2023-05-05T02:24:51.982Z,1016.52
2023-05-05T02:25:22.789Z,1016.42
2023-05-05T02:25:53.958Z,1016.42
2023-05-05T02:26:24.286Z,1016.52
2023-05-05T02:26:56.920Z,1016.52
2023-05-05T02:27:26.536Z,1016.63
2023-05-05T02:27:58.569Z,1016.63
2023-05-05T02:28:28.282Z,1016.52
2023-05-05T02:29:00.057Z,1016.52
2023-05-05T02:29:30.312Z,1016.52
2023-05-05T02:30:03.023Z,1016.52
2023-05-05T02:30:32.629Z,1016.73
2023-05-05T02:31:04.021Z,1016.42
2023-05-05T02:31:34.277Z,1016.42
2023-05-05T02:32:07.018Z,1016.52
2023-05-05T02:32:36.314Z,1016.52
2023-05-05T02:33:07.241Z,1016.63
2023-05-05T02:33:38.252Z,1016.63
2023-05-05T02:34:09.925Z,1016.63
2023-05-05T02:34:40.280Z,1016.63
2023-05-05T02:35:12.507Z,1016.42
2023-05-05T02:35:42.272Z,1016.42
2023-05-05T02:36:14.000Z,1016.83
2023-05-05T02:36:44.341Z,1016.83
2023-05-05T02:37:16.974Z,1016.63
2023-05-05T02:37:46.703Z,1016.63
2023-05-05T02:38:17.933Z,1016.73
2023-05-05T02:38:48.272Z,1016.73
2023-05-05T02:39:19.954Z,1016.52
2023-05-05T02:39:50.291Z,1016.52
2023-05-05T02:40:22.419Z,1016.93
2023-05-05T02:40:52.277Z,1016.93
2023-05-05T02:41:23.952Z,1016.73
2023-05-05T02:41:54.326Z,1016.73
2023-05-05T02:42:27.483Z,1016.73
2023-05-05T02:42:56.302Z,1016.73
2023-05-05T02:43:27.927Z,1016.42
2023-05-05T02:43:58.606Z,1016.42
2023-05-05T02:44:29.982Z,1016.42
2023-05-05T02:45:00.341Z,1016.42
2023-05-05T02:45:32.816Z,1016.63
2023-05-05T02:46:02.415Z,1016.83
2023-05-05T02:46:34.650Z,1016.83
2023-05-05T02:47:04.287Z,1016.63
2023-05-05T02:47:37.193Z,1016.63
2023-05-05T02:48:06.695Z,1016.83
2023-05-05T02:48:38.958Z,1016.83
2023-05-05T02:49:08.296Z,1016.73
2023-05-05T02:49:39.977Z,1016.73
2023-05-05T02:50:10.899Z,1016.63
2023-05-05T02:50:42.215Z,1016.63
2023-05-05T02:51:12.233Z,1016.32
2023-05-05T02:51:44.008Z,1016.32
2023-05-05T02:52:14.233Z,1016.73
2023-05-05T02:52:47.065Z,1016.73
2023-05-05T02:53:16.213Z,1016.52
2023-05-05T02:53:47.944Z,1016.52
2023-05-05T02:54:18.284Z,1016.73
2023-05-05T02:54:49.937Z,1016.73
2023-05-05T02:55:20.772Z,1016.52
2023-05-05T02:55:52.046Z,1016.52
2023-05-05T02:56:22.274Z,1016.63
2023-05-05T02:56:54.131Z,1016.63
2023-05-05T02:57:24.564Z,1016.52
2023-05-05T02:57:57.033Z,1016.52
2023-05-05T02:58:26.581Z,1016.42
2023-05-05T02:58:57.906Z,1016.42
2023-05-05T02:59:28.320Z,1016.42
2023-05-05T03:00:00.027Z,1016.42
2023-05-05T03:00:31.924Z,1016.32
2023-05-05T03:01:02.197Z,1016.32
2023-05-05T03:01:32.480Z,1016.32
2023-05-05T03:02:04.023Z,1016.63
2023-05-05T03:02:35.008Z,1016.63
2023-05-05T03:03:07.216Z,1016.52
2023-05-05T03:03:36.600Z,1016.52
2023-05-05T03:04:08.298Z,1016.52
2023-05-05T03:04:38.375Z,1016.52
2023-05-05T03:05:10.708Z,1016.42
2023-05-05T03:05:40.365Z,1016.42
2023-05-05T03:06:12.020Z,1016.52
2023-05-05T03:06:42.358Z,1016.52
2023-05-05T03:07:14.450Z,1016.63
2023-05-05T03:07:44.750Z,1016.63
2023-05-05T03:08:17.600Z,1016.73
2023-05-05T03:08:46.608Z,1016.73
2023-05-05T03:09:18.344Z,1016.73
2023-05-05T03:09:48.308Z,1016.73
2023-05-05T03:10:20.478Z,1016.63
2023-05-05T03:10:50.799Z,1016.63
2023-05-05T03:11:21.977Z,1016.83
2023-05-05T03:11:52.289Z,1016.83
2023-05-05T03:12:24.014Z,1016.73
2023-05-05T03:12:54.536Z,1016.73
2023-05-05T03:13:27.218Z,1016.83
2023-05-05T03:13:56.238Z,1016.83
2023-05-05T03:14:28.077Z,1016.83
2023-05-05T03:14:58.269Z,1016.83
2023-05-05T03:15:31.128Z,1017.03
2023-05-05T03:16:00.319Z,1017.03
2023-05-05T03:16:32.119Z,1017.03
2023-05-05T03:17:02.627Z,1016.93
2023-05-05T03:17:34.435Z,1016.93
2023-05-05T03:18:04.447Z,1017.03
2023-05-05T03:18:37.764Z,1017.03
2023-05-05T03:19:06.623Z,1016.73
2023-05-05T03:19:37.342Z,1016.73
2023-05-05T03:20:09.950Z,1016.93
2023-05-05T03:20:39.486Z,1016.93
2023-05-05T03:21:11.037Z,1016.93
2023-05-05T03:21:41.368Z,1016.93
2023-05-05T03:22:12.972Z,1016.83
2023-05-05T03:22:43.308Z,1016.83
2023-05-05T03:23:14.960Z,1016.83
2023-05-05T03:23:46.257Z,1016.83
2023-05-05T03:24:17.228Z,1016.73
2023-05-05T03:24:47.304Z,1016.73
2023-05-05T03:25:19.628Z,1016.93
2023-05-05T03:25:49.508Z,1016.93
2023-05-05T03:26:20.967Z,1016.83
2023-05-05T03:26:51.328Z,1016.83
2023-05-05T03:27:22.950Z,1016.83
2023-05-05T03:27:53.301Z,1016.83
2023-05-05T03:28:24.971Z,1016.83
2023-05-05T03:28:56.338Z,1016.83
2023-05-05T03:29:27.369Z,1016.63
2023-05-05T03:29:57.398Z,1016.63
2023-05-05T03:30:30.066Z,1016.83
2023-05-05T03:30:59.891Z,1016.83
2023-05-05T03:31:31.085Z,1016.73
2023-05-05T03:32:01.417Z,1016.73
2023-05-05T03:32:32.926Z,1016.63
2023-05-05T03:33:03.329Z,1016.73
2023-05-05T03:33:34.299Z,1016.73
2023-05-05T03:34:06.939Z,1016.83
2023-05-05T03:34:36.194Z,1016.83
2023-05-05T03:35:08.504Z,1016.52
2023-05-05T03:35:38.290Z,1016.52
2023-05-05T03:36:09.940Z,1016.73
2023-05-05T03:36:40.365Z,1016.73
2023-05-05T03:37:12.090Z,1016.83
2023-05-05T03:37:42.797Z,1016.83
2023-05-05T03:38:13.954Z,1016.83
2023-05-05T03:38:44.272Z,1016.83
2023-05-05T03:39:17.028Z,1017.03
2023-05-05T03:39:46.562Z,1017.03
2023-05-05T03:40:18.977Z,1016.93
2023-05-05T03:40:48.377Z,1016.93
2023-05-05T03:41:19.922Z,1016.73
2023-05-05T03:41:50.400Z,1016.73
2023-05-05T03:42:22.063Z,1016.83
2023-05-05T03:42:52.416Z,1016.83
2023-05-05T03:43:24.088Z,1016.73
2023-05-05T03:43:54.633Z,1016.73
2023-05-05T03:44:27.588Z,1016.93
2023-05-05T03:44:56.414Z,1016.93
2023-05-05T03:45:29.127Z,1016.73
2023-05-05T03:45:58.466Z,1016.73
2023-05-05T03:46:30.183Z,1016.73
2023-05-05T03:47:00.542Z,1016.73
2023-05-05T03:47:32.137Z,1016.83
2023-05-05T03:48:02.493Z,1016.93
2023-05-05T03:48:34.192Z,1016.93
2023-05-05T03:49:04.352Z,1016.83
2023-05-05T03:49:37.055Z,1016.83
2023-05-05T03:50:07.337Z,1016.83
2023-05-05T03:50:38.131Z,1016.83
2023-05-05T03:51:08.979Z,1016.93
2023-05-05T03:51:40.125Z,1016.93
2023-05-05T03:52:10.663Z,1016.73
2023-05-05T03:52:42.115Z,1016.73
2023-05-05T03:53:12.369Z,1016.93
2023-05-05T03:53:44.166Z,1016.93
2023-05-05T03:54:14.471Z,1016.93
2023-05-05T03:54:47.236Z,1016.93
2023-05-05T03:55:17.084Z,1016.73
2023-05-05T03:55:48.075Z,1016.73
2023-05-05T03:56:18.419Z,1016.83
2023-05-05T03:56:50.085Z,1016.83
2023-05-05T03:57:20.523Z,1016.93
2023-05-05T03:57:52.494Z,1016.93
2023-05-05T03:58:22.394Z,1016.93
2023-05-05T03:58:54.147Z,1016.93
2023-05-05T03:59:24.395Z,1016.73
2023-05-05T03:59:57.080Z,1016.73
2023-05-05T04:00:28.816Z,1017.03
2023-05-05T04:00:58.218Z,1017.03
2023-05-05T04:01:28.429Z,1016.83
2023-05-05T04:02:00.259Z,1016.83
2023-05-05T04:02:30.506Z,1017.03
2023-05-05T04:03:02.198Z,1017.03
2023-05-05T04:03:32.567Z,1017.03
2023-05-05T04:04:04.222Z,1017.03
2023-05-05T04:04:34.943Z,1017.03
2023-05-05T04:05:07.917Z,1016.83
2023-05-05T04:05:36.491Z,1016.83
2023-05-05T04:06:08.211Z,1016.93
2023-05-05T04:06:38.391Z,1016.93
2023-05-05T04:07:10.143Z,1016.93
2023-05-05T04:07:40.399Z,1016.93
2023-05-05T04:08:12.087Z,1017.03
2023-05-05T04:08:42.527Z,1017.03
2023-05-05T04:09:14.127Z,1017.13
2023-05-05T04:09:44.377Z,1017.13
2023-05-05T04:10:17.684Z,1017.13
2023-05-05T04:10:47.049Z,1017.13
2023-05-05T04:11:18.622Z,1017.13
2023-05-05T04:11:48.401Z,1017.13
2023-05-05T04:12:20.097Z,1016.93
2023-05-05T04:12:50.532Z,1016.93
2023-05-05T04:13:22.289Z,1016.83
2023-05-05T04:13:52.354Z,1016.83
2023-05-05T04:14:24.249Z,1017.03
2023-05-05T04:14:54.405Z,1017.03
2023-05-05T04:15:27.927Z,1016.93
2023-05-05T04:15:56.499Z,1016.93
2023-05-05T04:16:28.054Z,1017.03
2023-05-05T04:16:58.859Z,1017.03
2023-05-05T04:17:30.178Z,1017.03
2023-05-05T04:18:01.202Z,1017.03
2023-05-05T04:18:32.084Z,1016.93
2023-05-05T04:19:02.589Z,1016.83
2023-05-05T04:19:34.261Z,1016.83
2023-05-05T04:20:05.687Z,1017.13
2023-05-05T04:20:38.422Z,1017.13
2023-05-05T04:21:06.752Z,1017.03
2023-05-05T04:21:37.426Z,1017.03
2023-05-05T04:22:09.221Z,1016.83
2023-05-05T04:22:39.428Z,1016.83
2023-05-05T04:23:11.151Z,1017.03
2023-05-05T04:23:41.384Z,1017.03
2023-05-05T04:24:13.134Z,1017.03
2023-05-05T04:24:44.210Z,1017.03
2023-05-05T04:25:15.589Z,1016.83
2023-05-05T04:25:46.411Z,1016.83
2023-05-05T04:26:17.079Z,1017.03
2023-05-05T04:26:47.385Z,1017.03
2023-05-05T04:27:19.087Z,1016.93
2023-05-05T04:27:49.395Z,1016.93
2023-05-05T04:28:22.197Z,1016.73
2023-05-05T04:28:51.656Z,1016.73
2023-05-05T04:29:23.067Z,1017.03
2023-05-05T04:29:53.355Z,1017.03
2023-05-05T04:30:26.011Z,1017.03
2023-05-05T04:30:56.480Z,1017.03
2023-05-05T04:31:27.776Z,1016.93
2023-05-05T04:31:57.582Z,1016.93
2023-05-05T04:32:29.063Z,1016.93
2023-05-05T04:32:59.521Z,1016.93
2023-05-05T04:33:30.389Z,1017.03
2023-05-05T04:34:01.396Z,1017.03
2023-05-05T04:34:33.025Z,1017.03
2023-05-05T04:35:04.059Z,1017.13
2023-05-05T04:35:35.087Z,1017.13
2023-05-05T04:36:06.531Z,1017.03
2023-05-05T04:36:37.161Z,1017.03
2023-05-05T04:37:07.489Z,1016.83
2023-05-05T04:37:39.516Z,1016.83
2023-05-05T04:38:09.863Z,1017.03
2023-05-05T04:38:41.175Z,1017.03
2023-05-05T04:39:11.361Z,1017.03
2023-05-05T04:39:43.325Z,1017.03
2023-05-05T04:40:14.026Z,1017.13
2023-05-05T04:40:47.662Z,1017.13
2023-05-05T04:41:16.371Z,1016.93
2023-05-05T04:41:47.318Z,1016.93
2023-05-05T04:42:17.890Z,1016.83
2023-05-05T04:42:49.097Z,1016.83
2023-05-05T04:43:19.428Z,1017.03
2023-05-05T04:43:51.066Z,1017.03
2023-05-05T04:44:21.349Z,1017.13
2023-05-05T04:44:53.640Z,1017.13
2023-05-05T04:45:24.384Z,1017.03
2023-05-05T04:45:55.155Z,1017.03
2023-05-05T04:46:26.371Z,1017.03
2023-05-05T04:46:57.249Z,1017.03
2023-05-05T04:47:27.569Z,1017.03
2023-05-05T04:47:59.147Z,1017.03
2023-05-05T04:48:29.374Z,1017.03
2023-05-05T04:49:01.493Z,1017.03
2023-05-05T04:49:31.706Z,1017.03
2023-05-05T04:50:03.797Z,1017.03
2023-05-05T04:50:33.415Z,1017.03
2023-05-05T04:51:05.314Z,1016.83
2023-05-05T04:51:37.179Z,1016.83
2023-05-05T04:52:07.494Z,1017.03
2023-05-05T04:52:37.390Z,1017.03
2023-05-05T04:53:09.133Z,1017.03
2023-05-05T04:53:39.398Z,1017.03
2023-05-05T04:54:11.093Z,1017.03
2023-05-05T04:54:41.480Z,1017.03
2023-05-05T04:55:13.562Z,1017.03
2023-05-05T04:55:43.822Z,1017.03
2023-05-05T04:56:15.039Z,1017.24
2023-05-05T04:56:46.382Z,1017.24
2023-05-05T04:57:17.135Z,1017.13
2023-05-05T04:57:47.375Z,1017.13
2023-05-05T04:58:20.004Z,1017.34
2023-05-05T04:58:49.470Z,1017.34
2023-05-05T04:59:22.331Z,1017.24
2023-05-05T04:59:51.365Z,1017.24
2023-05-05T05:00:24.239Z,1017.03
2023-05-05T05:00:53.613Z,1017.03
2023-05-05T05:01:25.105Z,1017.13
2023-05-05T05:01:56.474Z,1017.13
2023-05-05T05:02:27.498Z,1017.34
2023-05-05T05:02:57.408Z,1017.34
2023-05-05T05:03:29.185Z,1017.13
2023-05-05T05:03:59.467Z,1017.13
2023-05-05T05:04:31.021Z,1017.13
2023-05-05T05:05:03.227Z,1017.13
2023-05-05T05:05:33.208Z,1017.24
2023-05-05T05:06:03.428Z,1017.13
2023-05-05T05:06:35.107Z,1017.13
2023-05-05T05:07:06.765Z,1017.44
2023-05-05T05:07:38.847Z,1017.44
2023-05-05T05:08:07.462Z,1017.24
2023-05-05T05:08:39.234Z,1017.24
2023-05-05T05:09:09.859Z,1017.34
2023-05-05T05:09:41.151Z,1017.34
2023-05-05T05:10:11.962Z,1017.34
2023-05-05T05:10:43.350Z,1017.34
2023-05-05T05:11:13.363Z,1017.13
2023-05-05T05:11:45.675Z,1017.13
2023-05-05T05:12:16.524Z,1017.24
2023-05-05T05:12:47.446Z,1017.24
2023-05-05T05:13:17.412Z,1017.24
2023-05-05T05:13:49.485Z,1017.24
2023-05-05T05:14:19.398Z,1017.13
2023-05-05T05:14:51.161Z,1017.13
2023-05-05T05:15:23.078Z,1017.13
2023-05-05T05:15:53.146Z,1017.13
2023-05-05T05:16:23.395Z,1017.24
2023-05-05T05:16:55.221Z,1017.24
2023-05-05T05:17:26.473Z,1017.34
2023-05-05T05:17:57.054Z,1017.34
2023-05-05T05:18:28.212Z,1017.13
2023-05-05T05:19:01.465Z,1017.13
2023-05-05T05:19:29.393Z,1017.24
2023-05-05T05:20:02.349Z,1017.24
2023-05-05T05:20:39.892Z,1017.24
2023-05-05T05:21:03.204Z,1017.34
2023-05-05T05:21:33.425Z,1017.34
2023-05-05T05:22:05.165Z,1017.24
2023-05-05T05:22:36.670Z,1017.24
2023-05-05T05:23:07.518Z,1017.03
2023-05-05T05:23:37.480Z,1017.03
2023-05-05T05:24:09.142Z,1017.44
2023-05-05T05:24:39.415Z,1017.44
2023-05-05T05:25:12.454Z,1017.13
2023-05-05T05:25:41.378Z,1017.13
2023-05-05T05:26:13.069Z,1017.34
2023-05-05T05:26:43.407Z,1017.34
2023-05-05T05:27:15.142Z,1017.24
2023-05-05T05:27:50.092Z,1017.24
2023-05-05T05:28:17.180Z,1017.13
2023-05-05T05:28:47.484Z,1017.13
2023-05-05T05:29:19.102Z,1017.34
2023-05-05T05:29:49.413Z,1017.34
2023-05-05T05:30:23.290Z,1017.44
2023-05-05T05:30:51.456Z,1017.44
2023-05-05T05:31:23.123Z,1017.24
2023-05-05T05:31:53.391Z,1017.24
2023-05-05T05:32:25.124Z,1017.03
2023-05-05T05:32:56.628Z,1017.03
2023-05-05T05:33:27.048Z,1016.93
2023-05-05T05:33:57.442Z,1016.93
2023-05-05T05:34:30.909Z,1017.44
2023-05-05T05:34:59.375Z,1017.44
2023-05-05T05:35:31.688Z,1017.24
2023-05-05T05:36:02.367Z,1017.24
2023-05-05T05:36:33.221Z,1017.34
2023-05-05T05:37:03.520Z,1017.34
2023-05-05T05:37:35.223Z,1017.34
2023-05-05T05:38:06.750Z,1017.24
2023-05-05T05:38:37.855Z,1017.24
2023-05-05T05:39:07.534Z,1017.24
2023-05-05T05:39:41.238Z,1017.24
2023-05-05T05:40:10.174Z,1017.44
2023-05-05T05:40:41.626Z,1017.44
2023-05-05T05:41:11.542Z,1017.34
2023-05-05T05:41:43.229Z,1017.34
2023-05-05T05:42:13.592Z,1017.24
2023-05-05T05:42:45.332Z,1017.24
2023-05-05T05:43:16.609Z,1017.34
2023-05-05T05:43:47.659Z,1017.34
2023-05-05T05:44:17.516Z,1017.44
2023-05-05T05:44:49.304Z,1017.44
2023-05-05T05:45:21.120Z,1017.24
2023-05-05T05:45:51.284Z,1017.24
2023-05-05T05:46:21.618Z,1017.34
2023-05-05T05:46:53.298Z,1017.34
2023-05-05T05:47:23.473Z,1017.34
2023-05-05T05:47:55.381Z,1017.34
2023-05-05T05:48:26.504Z,1017.44
2023-05-05T05:48:57.334Z,1017.44
2023-05-05T05:49:28.172Z,1017.44
2023-05-05T05:49:59.352Z,1017.44
2023-05-05T05:50:30.163Z,1017.24
2023-05-05T05:51:01.555Z,1017.24
2023-05-05T05:51:31.485Z,1017.24
2023-05-05T05:52:03.927Z,1017.34
2023-05-05T05:52:33.583Z,1017.34
2023-05-05T05:53:05.293Z,1017.34
2023-05-05T05:53:36.657Z,1017.34
2023-05-05T05:54:08.049Z,1017.24
2023-05-05T05:54:37.770Z,1017.24
2023-05-05T05:55:09.792Z,1017.24
2023-05-05T05:55:39.552Z,1017.24
2023-05-05T05:56:11.259Z,1017.44
2023-05-05T05:56:41.568Z,1017.44
2023-05-05T05:57:13.426Z,1017.34
2023-05-05T05:57:43.762Z,1017.34
2023-05-05T05:58:15.237Z,1017.24
2023-05-05T05:58:47.124Z,1017.24
2023-05-05T05:59:17.263Z,1017.13
2023-05-05T05:59:47.577Z,1017.13
2023-05-05T06:00:20.283Z,1017.44
2023-05-05T06:00:49.778Z,1017.44
2023-05-05T06:01:21.354Z,1017.34
2023-05-05T06:01:51.622Z,1017.34
2023-05-05T06:02:23.309Z,1017.34
2023-05-05T06:02:54.318Z,1017.34
2023-05-05T06:03:25.383Z,1017.34
2023-05-05T06:03:56.669Z,1017.34
2023-05-05T06:04:27.733Z,1017.34
2023-05-05T06:04:57.471Z,1017.34
2023-05-05T06:05:30.624Z,1017.44
2023-05-05T06:05:59.535Z,1017.44
2023-05-05T06:06:31.214Z,1017.34
2023-05-05T06:07:02.096Z,1017.34
2023-05-05T06:07:33.287Z,1017.24
2023-05-05T06:08:03.474Z,1016.93
2023-05-05T06:08:35.183Z,1016.93
2023-05-05T06:09:06.841Z,1017.34
2023-05-05T06:09:37.772Z,1017.34
2023-05-05T06:10:25.569Z,1017.13
2023-05-05T06:10:39.252Z,1017.13
2023-05-05T06:11:09.586Z,1017.34
2023-05-05T06:11:41.173Z,1017.34
2023-05-05T06:12:11.498Z,1017.44
2023-05-05T06:12:43.306Z,1017.44
2023-05-05T06:13:13.525Z,1017.34
2023-05-05T06:13:45.235Z,1017.34
2023-05-05T06:14:18.111Z,1017.44
2023-05-05T06:14:47.533Z,1017.44